Racecast

Morgan McCormick

Temperance Bedford (MI) · 12 · SECMI D1MONROE · Compare head to head

Athlete rating 131.6 2015 XC season
Best race 131.6 XC
Races 31
Seasons 5 2012 — 2016

RankedNation #6519·MI #952·MI D1 #630·SEC #69·Team #26 ?

Cross Country

2015 XC 123.8

Temperance Bedford (MI) · Grade 12

Date Meet Event Result Place Rating Difficulty PR/SR Flags
2015-10-22 Hudson Mills Metropark - OFFICIAL 5000m 20:37.1 16th · 4th on team 129.9 +0.036 ★CR SR CSR RSR
2015-10-03 Pearson's Metro Park 5000m 20:44.9 2nd · 2nd on team 121.9 -0.022 ★CR SR CSR
2015-09-29 Indian Creek OFFICIAL 5000m 21:09 24th · 2nd on team 127.0 +0.039 ★CR SR CSR
2015-09-19 Springfield Oaks County Park OFFICIAL 5000m 21:34 25th · 2nd on team 128.4 +0.067 ★CR SR CSR RSR
2015-09-10 Munson Park 5000m 22:30.6 51st · 4th on team 121.4 +0.054 ★CR CSR
2015-08-29 Boy Scout Camp Lakota 5000m 22:18.96 26th · 3rd on team 114.8 -0.003 ★CR CSR
2015-08-27 Heritage Park (Adrian) OFFICIAL 5000m 22:16.9 14th · 4th on team 123.5 +0.084 ★CR SR CSR RSR

2014 XC 123.6

Temperance Bedford (MI) · Grade 11

Date Meet Event Result Place Rating Difficulty PR/SR Flags
2014-10-25 Lake Erie Metro Park OFFICIAL 5000m 22:13.8 34th · 4th on team 123.4 +0.055 CSR
2014-10-04 Portage West MS 5000m 21:32 176th · 6th on team 124.4 +0.038 ★CR CSR
2014-09-23 Huron Meadows Metropark OFFICIAL 5000m 21:33 26th · 5th on team 127.7 +0.052 ★CR CSR
2014-09-20 Ella Sharp Park OFFICIAL 5000m 21:42.3 82nd · 6th on team 123.9 +0.038 CSR
2014-09-09 Hudson Mills Metropark - OFFICIAL 5000m 20:55 18th · 1st on team 128.9 +0.036 SR CSR RSR
2014-09-06 Hedges Boyer Park 5000m 21:27 161st · 6th on team 115.6 -0.036 ★CR SR CSR
2014-08-28 Heritage Park (Adrian) OFFICIAL 5000m 22:31 12th · 5th on team 123.7 +0.084 CR SR CSR RSR
2014-08-23 Island Lake Recreation Area OFFICIAL 5000m 23:04 32nd · 3rd on team 121.4 +0.069 SR CSR RSR

2013 XC 125.4

Temperance Bedford (MI) · Grade 10

Date Meet Event Result Place Rating Difficulty PR/SR Flags
2013-11-02 Michigan International Speedway (MIS) 5000m 20:53.4 194th · 5th on team 126.9 +0.022 ★CR CSR
2013-10-26 Lake Erie Metro Park OFFICIAL 5000m 20:54.5 28th · 5th on team 131.5 +0.055 ★CR CSR
2013-10-17 Hudson Mills Metropark - OFFICIAL 5000m 20:52.9 8th · 1st on team 127.5 +0.036 CR CSR
2013-10-05 Portage West MS 5000m 22:55 197th · 7th on team 118.3 +0.038 CR CSR
2013-09-28 Pearson's Metro Park 5000m 21:21.6 50th · 4th on team 119.4 -0.022 CR CSR
2013-09-21 Ella Sharp Park OFFICIAL 5000m 20:54 61st · 3rd on team 128.0 +0.038 ★CR CSR
2013-09-13 Forest Akers East Golf Course 5000m 20:36 73rd · 3rd on team 131.6 +0.061 ★PR ★CR ★R SR CSR RSR
2013-09-10 Pioneer HS 5000m 26:06.2 83rd · 9th on team +0.067 ★CR CSR
2013-09-07 Hedges Boyer Park 5000m 21:34 108th · 3rd on team 117.2 -0.036 PR CR SR CSR
2013-08-24 Island Lake Recreation Area OFFICIAL 5000m 21:52 8th · 4th on team 128.0 +0.069 PR ★CR R SR CSR RSR

2012 XC 123.7

Temperance Bedford (MI) · Grade 9

Date Meet Event Result Place Rating Difficulty PR/SR Flags
2012-10-18 Hudson Mills Metropark - OFFICIAL 5000m 22:17.7 34th · 6th on team 121.4 +0.036 CR CSR
2012-08-25 Island Lake Recreation Area OFFICIAL 5000m 22:08 17th · 7th on team 126.0 +0.069 PR CR R SR CSR RSR

Track & Field

2016 TF 113.7

Temperance Bedford (MI) · Grade 12

Date Meet Event Result Place Rating Difficulty PR/SR Flags
2016-04-26 Bedford @ Monroe 800m 2:43 4th · 3rd on team 112.3 -0.032
2016-04-26 Bedford @ Monroe 1600m 5:56 6th · 4th on team 115.6 -0.032 ★PR SR
2016-04-23 Whitmore Lake HS Invite 800m 2:37.83 8th · 2nd on team 116.0 -0.029 ★PR SR RSR
2016-04-19 Saline @ Bedford 800m 2:45.47 11th · 5th on team 110.9 -0.033 PR SR RSR